Time;durP1;ratioP1;P1;durP2;ratioP2;P2;SDS_P1;SDS_P2;PMS_P1;PMS_P2;Temp;Humidity;BMP_temperature;BMP_pressure;BME280_temperature;BME280_humidity;BME280_pressure;Samples;Min_cycle;Max_cycle;Signal;HPM_P1;HPM_P2
2021/10/08 00:01:36;;;;;;;2.45;2.03;;;11.80;91.60;;;;;;10129249;28;20025;-79
2021/10/08 00:06:26;;;;;;;3.00;2.55;;;11.80;91.50;;;;;;10113275;28;20071;-71
2021/10/08 00:11:17;;;;;;;3.90;2.05;;;11.80;91.60;;;;;;10120417;28;20441;-67
2021/10/08 00:16:08;;;;;;;3.72;2.30;;;11.70;91.70;;;;;;10099566;28;20027;-73
2021/10/08 00:21:00;;;;;;;2.97;1.92;;;11.70;91.70;;;;;;10109185;28;20021;-70
2021/10/08 00:25:50;;;;;;;3.72;2.25;;;11.70;92.00;;;;;;10103071;28;20082;-72
2021/10/08 00:30:41;;;;;;;4.88;2.30;;;11.60;92.00;;;;;;10105506;28;20086;-73
2021/10/08 00:35:32;;;;;;;5.28;1.83;;;11.60;92.10;;;;;;10107239;28;20120;-70
2021/10/08 00:40:23;;;;;;;5.35;3.35;;;11.60;92.10;;;;;;10115177;28;20060;-71
2021/10/08 00:45:15;;;;;;;3.35;2.70;;;11.60;92.00;;;;;;10101527;28;20056;-69
2021/10/08 00:50:10;;;;;;;3.53;2.40;;;11.60;92.10;;;;;;10105732;28;20044;-69
2021/10/08 00:55:00;;;;;;;4.80;2.70;;;11.50;92.30;;;;;;10127764;28;20081;-71
2021/10/08 00:59:51;;;;;;;2.83;1.92;;;11.50;92.10;;;;;;10095765;28;20033;-69
2021/10/08 01:04:44;;;;;;;3.45;2.40;;;11.50;92.20;;;;;;10126878;28;20040;-71
2021/10/08 01:09:34;;;;;;;6.97;3.67;;;11.50;92.20;;;;;;10124439;28;20429;-68
2021/10/08 01:14:25;;;;;;;3.00;2.08;;;11.40;92.20;;;;;;10122166;28;20049;-67
2021/10/08 01:19:16;;;;;;;3.08;1.88;;;11.50;92.10;;;;;;10125917;28;20048;-68
2021/10/08 01:24:08;;;;;;;7.00;2.42;;;11.40;92.20;;;;;;10121775;28;20020;-68
2021/10/08 01:28:58;;;;;;;4.85;3.00;;;11.40;92.30;;;;;;10120863;28;20487;-68
2021/10/08 01:33:50;;;;;;;4.55;2.67;;;11.40;92.20;;;;;;10118604;28;20016;-68
2021/10/08 01:38:41;;;;;;;3.35;2.50;;;11.40;92.20;;;;;;10124029;28;20111;-68
2021/10/08 01:43:32;;;;;;;4.32;2.22;;;11.50;92.10;;;;;;10106264;28;20131;-68
2021/10/08 01:48:22;;;;;;;4.35;2.20;;;11.40;92.30;;;;;;10118093;28;20032;-69
2021/10/08 01:53:13;;;;;;;5.72;2.25;;;11.40;92.30;;;;;;10102470;28;20059;-67
2021/10/08 01:58:04;;;;;;;2.90;2.05;;;11.40;92.50;;;;;;10127492;28;20028;-67
2021/10/08 02:02:54;;;;;;;4.78;1.80;;;11.40;92.40;;;;;;10120235;28;20020;-66
2021/10/08 02:07:47;;;;;;;3.13;2.00;;;11.30;92.50;;;;;;10122049;28;20040;-67
2021/10/08 02:12:37;;;;;;;5.03;2.15;;;11.30;92.50;;;;;;10125131;28;20080;-66
2021/10/08 02:17:28;;;;;;;3.08;1.90;;;11.30;92.50;;;;;;10120239;28;20029;-66
2021/10/08 02:22:19;;;;;;;2.72;2.35;;;11.30;92.50;;;;;;10119801;28;20410;-65
2021/10/08 02:27:10;;;;;;;2.90;2.22;;;11.30;92.50;;;;;;10117337;28;20037;-65
2021/10/08 02:32:00;;;;;;;2.60;2.05;;;11.20;92.70;;;;;;10114451;28;20411;-65
2021/10/08 02:36:51;;;;;;;4.07;2.50;;;11.20;92.80;;;;;;10101341;28;20526;-65
2021/10/08 02:41:42;;;;;;;3.95;2.20;;;11.10;92.80;;;;;;10113109;28;20411;-64
2021/10/08 02:46:32;;;;;;;2.80;2.03;;;11.20;92.70;;;;;;10113274;28;20101;-64
2021/10/08 02:51:23;;;;;;;2.45;2.00;;;11.20;92.60;;;;;;10121920;28;20213;-66
2021/10/08 02:56:14;;;;;;;4.85;2.20;;;11.20;92.40;;;;;;10102891;28;20111;-65
2021/10/08 03:01:05;;;;;;;4.70;2.30;;;11.20;92.30;;;;;;10120286;28;20029;-66
2021/10/08 03:05:55;;;;;;;3.28;2.30;;;11.20;92.40;;;;;;10121539;28;20490;-65
2021/10/08 03:10:46;;;;;;;3.72;2.40;;;11.20;92.40;;;;;;10121033;28;20483;-64
2021/10/08 03:15:36;;;;;;;3.50;1.88;;;11.10;92.50;;;;;;10123838;28;20067;-67
2021/10/08 03:20:27;;;;;;;2.72;2.53;;;11.00;92.60;;;;;;10121212;28;20024;-64
2021/10/08 03:25:18;;;;;;;4.28;2.50;;;11.10;92.50;;;;;;10116592;28;20036;-66
2021/10/08 03:30:14;;;;;;;3.20;2.40;;;11.00;92.40;;;;;;10093431;28;20063;-63
2021/10/08 03:35:06;;;;;;;3.95;2.58;;;11.00;92.40;;;;;;10115004;28;20021;-64
2021/10/08 03:39:56;;;;;;;2.63;2.10;;;11.00;92.50;;;;;;10118160;28;20313;-62
2021/10/08 03:44:54;;;;;;;4.53;2.60;;;11.00;92.30;;;;;;10122176;28;20033;-62
2021/10/08 03:49:45;;;;;;;5.45;3.00;;;11.00;92.30;;;;;;10122740;28;20032;-63
2021/10/08 03:54:35;;;;;;;3.65;2.25;;;10.90;92.40;;;;;;10117922;28;20028;-64
2021/10/08 03:59:26;;;;;;;3.20;2.20;;;10.90;92.40;;;;;;10109162;28;20096;-64
2021/10/08 04:04:17;;;;;;;3.83;2.00;;;10.90;92.40;;;;;;10109216;28;20494;-63
2021/10/08 04:09:08;;;;;;;4.80;3.25;;;10.90;92.50;;;;;;10100574;28;20135;-63
2021/10/08 04:13:59;;;;;;;3.63;2.33;;;10.90;92.70;;;;;;10121612;28;20090;-63
2021/10/08 04:18:50;;;;;;;3.00;2.17;;;10.80;92.70;;;;;;10121041;28;20300;-62
2021/10/08 04:23:41;;;;;;;2.85;2.15;;;10.80;93.00;;;;;;10116133;28;20055;-62
2021/10/08 04:28:32;;;;;;;3.15;2.65;;;10.70;93.10;;;;;;10112233;28;20491;-63
2021/10/08 04:33:25;;;;;;;3.05;2.33;;;10.70;93.20;;;;;;10104851;28;20081;-62
2021/10/08 04:38:17;;;;;;;5.00;2.92;;;10.70;93.20;;;;;;10104790;28;20025;-64
2021/10/08 04:43:08;;;;;;;3.72;2.60;;;10.60;93.30;;;;;;10098606;28;20037;-63
2021/10/08 04:47:59;;;;;;;4.82;2.60;;;10.60;93.30;;;;;;10115570;28;20048;-62
2021/10/08 04:52:50;;;;;;;5.18;2.67;;;10.60;93.30;;;;;;10120649;28;20025;-62
2021/10/08 04:57:40;;;;;;;2.83;2.55;;;10.60;93.30;;;;;;10116706;28;20032;-67
2021/10/08 05:02:31;;;;;;;3.70;2.92;;;10.60;93.30;;;;;;10122082;28;20118;-64
2021/10/08 05:07:22;;;;;;;6.70;3.40;;;10.60;93.50;;;;;;10126052;28;20032;-62
2021/10/08 05:12:13;;;;;;;6.05;2.72;;;10.50;93.60;;;;;;10084715;28;20070;-63
2021/10/08 05:17:03;;;;;;;4.30;2.72;;;10.50;93.70;;;;;;10116633;28;20035;-63
2021/10/08 05:21:54;;;;;;;3.58;2.30;;;10.50;93.50;;;;;;10110035;28;20052;-63
2021/10/08 05:26:45;;;;;;;3.80;3.00;;;10.40;93.70;;;;;;10117743;28;20039;-61
2021/10/08 05:31:36;;;;;;;3.90;3.05;;;10.30;93.70;;;;;;10119198;28;20089;-62
2021/10/08 05:36:26;;;;;;;5.90;3.70;;;10.30;93.90;;;;;;10112676;28;20028;-64
2021/10/08 05:41:17;;;;;;;4.68;2.70;;;10.30;94.00;;;;;;10123247;28;20024;-62
2021/10/08 05:46:08;;;;;;;4.78;3.33;;;10.30;94.10;;;;;;10126621;28;20429;-61
2021/10/08 05:50:58;;;;;;;4.95;3.47;;;10.30;94.10;;;;;;10117795;28;20033;-65
2021/10/08 05:55:49;;;;;;;3.97;2.95;;;10.20;94.20;;;;;;10103256;28;20040;-61
2021/10/08 06:00:40;;;;;;;5.38;3.22;;;10.20;94.40;;;;;;10127141;28;20052;-61
2021/10/08 06:05:35;;;;;;;6.88;3.88;;;10.30;94.30;;;;;;10123839;28;20166;-61
2021/10/08 06:10:25;;;;;;;8.48;3.58;;;10.30;94.20;;;;;;10130442;28;20048;-62
2021/10/08 06:15:16;;;;;;;5.30;4.05;;;10.30;94.30;;;;;;10126655;28;20457;-64
2021/10/08 06:20:07;;;;;;;7.22;3.65;;;10.30;94.40;;;;;;10125572;28;20552;-66
2021/10/08 06:24:58;;;;;;;7.22;3.78;;;10.30;94.40;;;;;;10098914;28;20028;-65
2021/10/08 06:29:49;;;;;;;5.57;3.30;;;10.40;94.30;;;;;;10123902;28;20036;-64
2021/10/08 06:34:39;;;;;;;6.13;3.55;;;10.40;94.20;;;;;;10116726;28;20012;-61
2021/10/08 06:39:30;;;;;;;7.90;4.13;;;10.40;94.30;;;;;;10102416;28;20025;-59
2021/10/08 06:44:21;;;;;;;5.40;3.22;;;10.40;94.40;;;;;;10092997;28;20028;-59
2021/10/08 06:49:12;;;;;;;7.18;3.35;;;10.40;94.30;;;;;;10099090;28;20519;-63
2021/10/08 06:54:03;;;;;;;7.78;3.70;;;10.50;94.20;;;;;;10104110;28;20016;-61
2021/10/08 06:58:54;;;;;;;7.22;3.55;;;10.50;94.20;;;;;;10107842;28;20028;-60
2021/10/08 07:03:45;;;;;;;6.40;3.75;;;10.60;94.20;;;;;;10108927;28;20278;-60
2021/10/08 07:08:35;;;;;;;5.60;3.28;;;10.60;94.20;;;;;;10111096;28;20098;-60
2021/10/08 07:13:26;;;;;;;5.85;3.47;;;10.70;94.10;;;;;;10108766;28;20055;-60
2021/10/08 07:18:23;;;;;;;6.93;3.55;;;10.80;94.00;;;;;;10114404;28;20517;-60
2021/10/08 07:23:13;;;;;;;7.63;4.63;;;10.90;93.90;;;;;;10109432;28;20028;-63
2021/10/08 07:28:04;;;;;;;7.40;4.32;;;10.90;93.90;;;;;;10100905;28;20037;-60
2021/10/08 07:32:55;;;;;;;5.68;3.03;;;11.00;93.80;;;;;;10115419;28;20033;-61
2021/10/08 07:37:46;;;;;;;4.63;2.95;;;11.10;93.70;;;;;;10103956;28;20033;-60
2021/10/08 07:42:37;;;;;;;5.20;3.45;;;11.20;93.60;;;;;;10105950;28;20021;-59
2021/10/08 07:47:28;;;;;;;4.47;2.95;;;11.30;93.60;;;;;;10111482;28;20411;-59
2021/10/08 07:52:18;;;;;;;7.05;3.72;;;11.40;93.50;;;;;;10109150;28;20029;-61
2021/10/08 07:57:09;;;;;;;5.68;3.53;;;11.60;93.30;;;;;;10098416;28;20078;-61
2021/10/08 08:02:00;;;;;;;6.85;3.90;;;11.70;93.20;;;;;;10114024;28;20029;-61
2021/10/08 08:06:51;;;;;;;8.20;3.92;;;11.80;93.10;;;;;;10117679;28;20027;-61
2021/10/08 08:11:43;;;;;;;5.53;3.88;;;11.90;93.00;;;;;;10121181;28;20048;-59
2021/10/08 08:16:34;;;;;;;6.47;3.70;;;12.10;92.90;;;;;;10121162;28;20475;-60
2021/10/08 08:21:25;;;;;;;5.32;3.40;;;12.10;92.80;;;;;;10093182;28;20037;-59
2021/10/08 08:26:15;;;;;;;5.82;4.07;;;12.20;92.70;;;;;;10115852;28;20029;-61
2021/10/08 08:31:06;;;;;;;5.47;3.85;;;12.30;92.60;;;;;;10123687;28;20033;-60
2021/10/08 08:35:57;;;;;;;4.53;3.40;;;12.30;92.50;;;;;;10112385;28;20083;-61
2021/10/08 08:40:48;;;;;;;5.00;3.50;;;12.50;92.40;;;;;;10113990;28;20040;-61
2021/10/08 08:45:39;;;;;;;4.60;3.47;;;12.70;92.20;;;;;;10108651;28;20029;-57
2021/10/08 08:50:32;;;;;;;5.43;3.35;;;12.80;92.00;;;;;;10108052;28;20117;-61
2021/10/08 08:55:24;;;;;;;5.35;3.70;;;12.90;91.90;;;;;;10091313;28;20029;-58
2021/10/08 09:00:17;;;;;;;6.65;3.67;;;13.10;91.80;;;;;;10113503;28;20025;-61
2021/10/08 09:05:17;;;;;;;6.22;3.13;;;13.10;91.70;;;;;;10116140;28;20021;-66
2021/10/08 09:10:20;;;;;;;5.78;3.85;;;13.20;91.50;;;;;;10120107;28;20062;-62
2021/10/08 09:15:11;;;;;;;4.85;3.15;;;13.30;91.40;;;;;;10108973;28;20057;-60
2021/10/08 09:20:06;;;;;;;4.32;2.75;;;13.40;91.30;;;;;;10120443;28;20036;-62
2021/10/08 09:25:07;;;;;;;5.77;3.10;;;13.60;91.20;;;;;;10098640;28;20061;-64
2021/10/08 09:29:57;;;;;;;7.68;3.40;;;13.70;90.90;;;;;;10111581;28;20040;-63
2021/10/08 09:35:03;;;;;;;5.13;3.28;;;13.80;90.90;;;;;;10098668;28;20033;-62
2021/10/08 09:39:54;;;;;;;3.58;2.50;;;13.90;90.80;;;;;;10115674;28;20033;-62
2021/10/08 09:44:51;;;;;;;4.22;2.75;;;14.00;90.60;;;;;;10107368;28;20369;-67
2021/10/08 09:49:43;;;;;;;4.72;2.97;;;14.10;90.50;;;;;;10105921;28;20048;-61
2021/10/08 09:54:50;;;;;;;3.53;3.00;;;14.20;90.30;;;;;;10121240;28;20498;-64
2021/10/08 09:59:41;;;;;;;3.10;2.58;;;14.30;90.30;;;;;;10108071;28;20064;-65
2021/10/08 10:04:52;;;;;;;6.57;3.47;;;14.50;90.10;;;;;;10117888;28;20054;-62
2021/10/08 10:09:43;;;;;;;5.32;2.75;;;14.70;89.80;;;;;;10102681;28;20037;-63
2021/10/08 10:14:34;;;;;;;3.95;2.60;;;14.70;89.70;;;;;;10125972;28;20286;-62
2021/10/08 10:19:27;;;;;;;6.13;3.28;;;14.80;89.50;;;;;;10121238;28;20514;-60
2021/10/08 10:24:18;;;;;;;4.95;2.65;;;14.80;89.40;;;;;;10106882;28;20481;-61
2021/10/08 10:29:10;;;;;;;4.32;2.72;;;14.90;89.20;;;;;;10116663;28;20056;-63
2021/10/08 10:34:02;;;;;;;3.63;2.45;;;15.00;88.80;;;;;;10122423;28;20047;-61
2021/10/08 10:39:20;;;;;;;5.03;2.85;;;15.10;88.50;;;;;;10114568;28;20029;-63
2021/10/08 10:44:20;;;;;;;6.80;3.30;;;15.20;87.60;;;;;;10119227;28;20036;-61
2021/10/08 10:54:13;;;;;;;3.58;2.65;;;15.50;87.70;;;;;;10113964;28;20033;-65
2021/10/08 10:59:22;;;;;;;5.07;2.88;;;15.60;87.50;;;;;;10116367;28;20043;-60
2021/10/08 11:04:25;;;;;;;6.57;2.92;;;15.70;86.60;;;;;;10116408;28;20097;-61
2021/10/08 11:09:19;;;;;;;4.72;3.05;;;15.70;86.60;;;;;;10116449;28;20082;-63
2021/10/08 11:14:20;;;;;;;6.35;3.13;;;16.10;86.80;;;;;;10081302;28;20051;-62
2021/10/08 11:19:40;;;;;;;8.80;3.70;;;16.30;85.70;;;;;;10082327;28;20053;-67
2021/10/08 11:24:31;;;;;;;5.22;3.10;;;16.30;85.50;;;;;;10065103;28;20103;-66
2021/10/08 11:29:22;;;;;;;6.72;3.15;;;16.20;86.10;;;;;;10077832;28;20069;-63
2021/10/08 11:34:13;;;;;;;4.32;2.95;;;16.40;86.10;;;;;;10080841;28;20032;-62
2021/10/08 11:39:13;;;;;;;6.07;3.33;;;16.50;85.80;;;;;;10079943;28;20036;-68
2021/10/08 11:44:18;;;;;;;4.38;2.70;;;16.30;85.80;;;;;;10069913;28;20407;-62
2021/10/08 11:54:19;;;;;;;5.13;3.40;;;16.40;84.70;;;;;;10078777;28;20071;-67
2021/10/08 11:59:10;;;;;;;4.78;3.25;;;16.30;85.30;;;;;;10082831;28;20530;-65
2021/10/08 12:04:01;;;;;;;4.82;2.90;;;16.60;84.60;;;;;;10070824;28;20439;-65
2021/10/08 12:08:53;;;;;;;4.88;2.97;;;16.60;84.10;;;;;;10080548;28;20051;-64
2021/10/08 12:13:48;;;;;;;5.75;3.53;;;16.80;83.40;;;;;;10098196;28;20174;-67
2021/10/08 12:18:57;;;;;;;5.15;3.53;;;16.80;83.20;;;;;;10114476;28;20024;-63
2021/10/08 12:24:00;;;;;;;5.47;2.83;;;16.90;82.60;;;;;;10118373;28;20191;-60
2021/10/08 12:28:52;;;;;;;3.85;2.55;;;17.10;82.20;;;;;;10119982;28;20033;-64
2021/10/08 12:33:44;;;;;;;3.00;2.60;;;17.20;82.10;;;;;;10099326;28;20095;-61
2021/10/08 12:38:56;;;;;;;4.97;2.88;;;17.50;81.90;;;;;;10119382;28;20025;-61
2021/10/08 12:43:47;;;;;;;5.03;2.88;;;17.70;80.40;;;;;;10117488;28;20048;-62
2021/10/08 12:48:38;;;;;;;4.95;3.05;;;17.80;81.20;;;;;;10121726;28;20135;-60
2021/10/08 12:53:28;;;;;;;4.60;2.75;;;17.90;80.70;;;;;;10116861;28;20032;-59
2021/10/08 12:58:23;;;;;;;4.68;3.55;;;18.30;81.10;;;;;;10122942;28;20131;-60
2021/10/08 13:03:35;;;;;;;4.85;3.10;;;18.80;81.00;;;;;;10109444;28;20025;-62
2021/10/08 13:08:29;;;;;;;5.10;3.20;;;19.10;79.10;;;;;;10123527;28;20123;-59
2021/10/08 13:13:26;;;;;;;6.75;3.63;;;19.20;79.80;;;;;;10114100;28;20029;-61
2021/10/08 13:18:17;;;;;;;4.93;3.42;;;18.70;78.40;;;;;;10123636;28;20166;-61
2021/10/08 13:23:09;;;;;;;5.78;3.50;;;18.30;79.40;;;;;;10127414;28;20028;-62
2021/10/08 13:27:59;;;;;;;5.65;3.45;;;18.00;78.90;;;;;;10127824;28;20517;-61
2021/10/08 13:32:50;;;;;;;5.97;4.00;;;17.70;79.10;;;;;;10123164;28;20031;-60
2021/10/08 13:37:41;;;;;;;5.20;3.50;;;18.30;78.30;;;;;;10123544;28;20081;-60
2021/10/08 13:42:31;;;;;;;7.13;4.35;;;19.00;77.80;;;;;;10122979;28;20026;-61
2021/10/08 13:47:22;;;;;;;5.65;4.30;;;20.50;76.80;;;;;;10119672;28;20040;-64
2021/10/08 13:52:13;;;;;;;5.22;3.95;;;20.80;74.40;;;;;;10126997;28;20047;-63
2021/10/08 13:57:05;;;;;;;9.88;5.47;;;20.70;73.70;;;;;;10103634;28;20091;-60
2021/10/08 14:11:43;;;;;;;5.88;4.40;;;21.90;70.00;;;;;;10095101;28;20398;-68
2021/10/08 14:16:34;;;;;;;5.80;3.28;;;22.60;68.10;;;;;;10124476;28;20032;-69
2021/10/08 14:21:24;;;;;;;6.43;3.85;;;23.20;66.80;;;;;;10123565;28;20029;-62
2021/10/08 14:26:15;;;;;;;7.00;4.00;;;24.60;64.50;;;;;;10121886;28;20033;-62
2021/10/08 14:31:06;;;;;;;5.30;4.22;;;24.70;62.10;;;;;;10117270;28;20794;-61
2021/10/08 14:35:56;;;;;;;6.85;4.30;;;25.00;61.00;;;;;;10114292;28;20029;-70
2021/10/08 14:40:47;;;;;;;5.93;3.63;;;25.40;59.60;;;;;;10124866;28;20059;-62
2021/10/08 14:45:38;;;;;;;5.93;3.70;;;25.90;58.00;;;;;;10102663;28;20021;-64
2021/10/08 14:50:29;;;;;;;9.00;3.75;;;26.40;57.00;;;;;;10118798;28;20033;-60
2021/10/08 15:00:32;;;;;;;6.68;4.45;;;21.50;63.10;;;;;;10116999;28;20059;-62
2021/10/08 15:05:23;;;;;;;6.23;4.03;;;22.50;63.50;;;;;;10099405;28;20016;-62
2021/10/08 15:10:13;;;;;;;4.95;3.83;;;23.60;60.50;;;;;;10126017;28;20294;-60
2021/10/08 15:15:05;;;;;;;4.25;3.53;;;21.70;62.70;;;;;;10123309;28;20075;-63
2021/10/08 15:19:55;;;;;;;4.78;3.55;;;21.10;63.90;;;;;;10121053;28;20436;-60
2021/10/08 15:24:46;;;;;;;6.28;4.20;;;19.70;67.40;;;;;;10114009;28;20024;-59
2021/10/08 15:29:37;;;;;;;6.82;3.33;;;18.40;70.70;;;;;;10116193;28;20533;-62
2021/10/08 15:34:28;;;;;;;6.45;3.72;;;17.70;72.40;;;;;;10122852;28;20021;-66
2021/10/08 15:39:19;;;;;;;7.07;3.75;;;17.40;73.20;;;;;;10123059;28;20120;-64
2021/10/08 15:44:10;;;;;;;7.43;3.97;;;17.30;73.70;;;;;;10123002;28;20606;-69
2021/10/08 15:49:00;;;;;;;6.80;3.63;;;17.20;74.30;;;;;;10107150;28;20524;-70
2021/10/08 15:53:51;;;;;;;5.55;3.63;;;17.10;75.00;;;;;;10105533;28;20032;-60
2021/10/08 15:58:42;;;;;;;5.75;3.95;;;17.10;75.10;;;;;;10121818;28;20478;-69
2021/10/08 16:03:32;;;;;;;8.20;4.38;;;17.00;75.80;;;;;;10113068;28;20537;-64
2021/10/08 16:08:24;;;;;;;6.47;3.92;;;16.90;76.20;;;;;;10097116;28;20041;-64
2021/10/08 16:13:14;;;;;;;5.95;3.58;;;16.90;76.20;;;;;;10107217;28;20449;-68
2021/10/08 16:18:14;;;;;;;6.75;4.22;;;16.80;76.30;;;;;;10118489;28;20494;-65
2021/10/08 16:23:05;;;;;;;5.88;3.63;;;16.80;76.80;;;;;;10097797;28;20025;-68
2021/10/08 16:27:57;;;;;;;7.53;3.90;;;16.70;77.30;;;;;;10098766;28;20036;-66
2021/10/08 16:32:51;;;;;;;5.38;4.05;;;16.50;77.70;;;;;;10123140;28;20513;-61
2021/10/08 16:37:41;;;;;;;9.43;5.78;;;16.40;77.90;;;;;;10111237;28;20056;-64
2021/10/08 16:42:37;;;;;;;7.85;4.43;;;16.40;78.90;;;;;;10108436;28;20053;-61
2021/10/08 16:47:27;;;;;;;8.65;4.88;;;16.30;78.80;;;;;;10105812;28;20035;-60
2021/10/08 16:52:18;;;;;;;5.45;4.15;;;16.20;78.90;;;;;;10103782;28;20036;-60
2021/10/08 16:57:10;;;;;;;5.15;3.78;;;16.10;79.30;;;;;;10112349;28;20021;-63
2021/10/08 17:02:00;;;;;;;6.82;4.30;;;16.00;79.50;;;;;;10107147;28;20043;-59
2021/10/08 17:06:52;;;;;;;7.00;4.57;;;16.00;79.70;;;;;;10122573;28;20027;-63
2021/10/08 17:11:43;;;;;;;8.32;4.78;;;15.90;80.00;;;;;;10110783;28;20090;-62
2021/10/08 17:16:34;;;;;;;6.85;4.30;;;15.80;80.60;;;;;;10095101;28;20044;-60
2021/10/08 17:21:25;;;;;;;7.78;4.50;;;15.70;80.50;;;;;;10090883;28;20522;-59
2021/10/08 17:26:24;;;;;;;9.02;4.75;;;15.70;80.50;;;;;;10118532;28;20071;-62
2021/10/08 17:36:23;;;;;;;7.85;4.75;;;15.40;83.60;;;;;;10110897;28;20112;-67
2021/10/08 17:41:14;;;;;;;7.07;4.25;;;15.40;82.50;;;;;;10125986;28;20077;-59
2021/10/08 17:46:04;;;;;;;11.40;5.18;;;15.40;82.70;;;;;;10116218;28;20025;-60
2021/10/08 17:50:56;;;;;;;9.07;5.05;;;15.30;83.40;;;;;;10112840;28;20241;-63
2021/10/08 17:55:47;;;;;;;9.68;5.32;;;15.30;83.50;;;;;;10118379;28;20014;-63
2021/10/08 18:01:21;;;;;;;6.75;3.83;;;15.30;83.90;;;;;;10108398;28;20432;-62
2021/10/08 18:05:52;;;;;;;6.93;4.90;;;15.20;84.20;;;;;;10092453;28;20039;-67
2021/10/08 18:10:43;;;;;;;11.50;6.15;;;15.20;84.40;;;;;;10120872;28;20481;-64
2021/10/08 18:15:34;;;;;;;8.40;5.22;;;15.10;84.50;;;;;;10102958;28;20044;-59
2021/10/08 18:20:25;;;;;;;8.38;5.38;;;15.10;84.70;;;;;;10114536;28;20413;-63
2021/10/08 18:25:16;;;;;;;8.65;4.97;;;15.10;84.90;;;;;;10114268;28;20129;-60
2021/10/08 18:30:14;;;;;;;7.63;5.53;;;15.00;85.60;;;;;;10110342;28;20036;-62
2021/10/08 18:35:05;;;;;;;9.57;5.10;;;15.00;85.70;;;;;;10099227;28;20013;-67
2021/10/08 18:39:59;;;;;;;12.70;5.45;;;14.80;85.90;;;;;;10117401;28;20294;-62
2021/10/08 18:44:50;;;;;;;10.10;5.55;;;14.80;86.10;;;;;;10092675;28;20130;-60
2021/10/08 18:49:41;;;;;;;10.65;5.55;;;14.80;86.10;;;;;;10125301;28;20162;-62
2021/10/08 18:54:31;;;;;;;7.63;5.00;;;14.80;86.50;;;;;;10126216;28;20036;-61
2021/10/08 18:59:25;;;;;;;8.35;5.57;;;14.80;86.40;;;;;;10114141;28;20025;-61
2021/10/08 19:04:16;;;;;;;8.38;4.72;;;14.70;86.50;;;;;;10117785;28;20479;-62
2021/10/08 19:09:12;;;;;;;11.15;5.88;;;14.70;87.00;;;;;;10111876;28;20041;-60
2021/10/08 19:14:08;;;;;;;12.48;6.43;;;14.70;87.10;;;;;;10104794;28;20068;-59
2021/10/08 19:23:56;;;;;;;9.02;5.97;;;14.50;88.00;;;;;;10109749;28;20104;-60
2021/10/08 19:28:47;;;;;;;10.55;5.68;;;14.50;87.90;;;;;;10121958;28;20063;-63
2021/10/08 19:33:38;;;;;;;10.57;6.22;;;14.40;88.40;;;;;;10096129;28;20063;-60
2021/10/08 19:38:28;;;;;;;11.10;5.88;;;14.40;88.40;;;;;;10102708;28;20082;-64
2021/10/08 19:43:23;;;;;;;9.20;5.30;;;14.30;88.70;;;;;;10116013;28;20043;-62
2021/10/08 19:48:13;;;;;;;11.07;5.85;;;14.30;88.40;;;;;;10087633;28;20025;-59
2021/10/08 19:53:04;;;;;;;12.05;6.55;;;14.20;89.20;;;;;;10102837;28;20486;-61
2021/10/08 19:57:55;;;;;;;9.50;5.32;;;14.10;89.70;;;;;;10112719;28;20411;-62
2021/10/08 20:02:48;;;;;;;11.35;6.20;;;14.20;89.70;;;;;;10123445;28;20031;-60
2021/10/08 20:13:04;;;;;;;9.30;6.45;;;14.10;90.20;;;;;;10114234;28;20063;-58
2021/10/08 20:17:55;;;;;;;10.18;6.00;;;14.00;90.30;;;;;;10104025;28;20100;-59
2021/10/08 20:22:45;;;;;;;10.73;6.05;;;13.90;90.40;;;;;;10107614;28;20318;-64
2021/10/08 20:27:36;;;;;;;11.95;6.30;;;13.90;90.30;;;;;;10122152;28;20070;-61
2021/10/08 20:32:27;;;;;;;12.32;6.18;;;13.80;90.10;;;;;;10125958;28;20029;-60
2021/10/08 20:37:18;;;;;;;9.55;6.05;;;13.80;90.50;;;;;;10111223;28;20805;-60
2021/10/08 20:42:09;;;;;;;12.48;5.78;;;13.70;90.50;;;;;;10109628;28;20064;-66
2021/10/08 20:47:00;;;;;;;12.95;5.43;;;13.70;90.80;;;;;;10111373;28;20032;-62
2021/10/08 20:51:50;;;;;;;11.50;6.10;;;13.70;90.80;;;;;;10118647;28;20397;-64
2021/10/08 20:56:41;;;;;;;9.13;5.47;;;13.60;90.80;;;;;;10118985;28;20082;-70
2021/10/08 21:01:32;;;;;;;12.40;6.07;;;13.70;90.80;;;;;;10122143;28;20094;-62
2021/10/08 21:06:22;;;;;;;8.52;5.50;;;13.60;90.80;;;;;;10117732;28;20433;-61
2021/10/08 21:11:13;;;;;;;13.38;6.47;;;13.60;90.80;;;;;;10121428;28;20036;-67
2021/10/08 21:16:04;;;;;;;12.60;6.53;;;13.60;90.80;;;;;;10131555;28;20032;-60
2021/10/08 21:20:55;;;;;;;11.90;6.03;;;13.60;91.00;;;;;;10124968;28;20025;-61
2021/10/08 21:25:46;;;;;;;12.07;6.43;;;13.50;91.00;;;;;;10110994;28;20469;-60
2021/10/08 21:30:44;;;;;;;10.25;6.20;;;13.50;91.00;;;;;;10120394;28;20037;-59
2021/10/08 21:35:38;;;;;;;14.52;6.95;;;13.50;91.00;;;;;;10116778;28;20028;-61
2021/10/08 21:45:58;;;;;;;12.50;6.63;;;13.40;91.00;;;;;;9953276;28;20509;-65
2021/10/08 21:50:48;;;;;;;9.95;6.32;;;13.30;91.10;;;;;;10116410;28;20161;-62
2021/10/08 21:55:39;;;;;;;12.45;6.82;;;13.30;91.30;;;;;;10106278;28;20483;-61
2021/10/08 22:00:29;;;;;;;12.40;6.30;;;13.20;91.30;;;;;;10115307;28;20479;-64
2021/10/08 22:05:20;;;;;;;15.48;8.63;;;13.10;91.40;;;;;;10122749;28;20025;-62
2021/10/08 22:10:12;;;;;;;12.30;6.47;;;13.00;91.40;;;;;;10124381;28;20554;-62
2021/10/08 22:15:03;;;;;;;13.73;7.03;;;13.00;91.50;;;;;;10118522;28;20620;-64
2021/10/08 22:19:57;;;;;;;12.00;6.43;;;12.90;91.50;;;;;;10121253;28;20549;-66
2021/10/08 22:24:59;;;;;;;14.30;6.70;;;12.90;91.50;;;;;;10117118;28;20025;-60
2021/10/08 22:34:59;;;;;;;14.15;6.72;;;12.80;91.60;;;;;;10111254;28;20035;-64
2021/10/08 22:39:49;;;;;;;13.95;7.32;;;12.80;91.60;;;;;;10119411;28;20039;-62
2021/10/08 22:44:41;;;;;;;12.18;6.57;;;12.80;91.50;;;;;;10110356;28;20104;-65
2021/10/08 22:49:33;;;;;;;14.63;6.55;;;12.80;91.70;;;;;;10116325;28;20067;-62
2021/10/08 22:54:23;;;;;;;14.63;8.40;;;12.70;91.70;;;;;;10120726;28;20059;-60
2021/10/08 22:59:14;;;;;;;11.40;6.22;;;12.70;91.70;;;;;;10121203;28;20628;-63
2021/10/08 23:04:11;;;;;;;12.32;6.40;;;12.60;91.70;;;;;;10116113;28;20435;-60
2021/10/08 23:09:10;;;;;;;14.75;6.82;;;12.60;91.70;;;;;;10110885;28;20577;-64
2021/10/08 23:14:06;;;;;;;12.02;7.72;;;12.60;91.70;;;;;;10117908;28;20073;-60
2021/10/08 23:18:58;;;;;;;9.25;6.63;;;12.50;91.70;;;;;;10114468;28;20110;-62
2021/10/08 23:23:49;;;;;;;12.45;7.20;;;12.40;91.90;;;;;;10103620;28;20498;-59
2021/10/08 23:28:39;;;;;;;16.08;6.70;;;12.40;92.00;;;;;;10109687;28;20036;-62
2021/10/08 23:33:30;;;;;;;12.50;7.15;;;12.30;91.90;;;;;;10077331;28;20095;-61
2021/10/08 23:38:21;;;;;;;12.00;6.82;;;12.30;92.20;;;;;;10120159;28;20082;-63
2021/10/08 23:43:11;;;;;;;14.60;7.40;;;12.20;92.30;;;;;;10119729;28;20021;-61
2021/10/08 23:48:02;;;;;;;12.40;7.50;;;12.10;92.40;;;;;;10101745;28;20029;-63
2021/10/08 23:52:53;;;;;;;14.27;6.78;;;12.10;92.50;;;;;;10110341;28;20032;-59
2021/10/08 23:57:44;;;;;;;13.00;6.47;;;12.10;92.40;;;;;;10099831;28;20043;-59
